Time;durP1;ratioP1;P1;durP2;ratioP2;P2;SDS_P1;SDS_P2;PMS_P1;PMS_P2;Temp;Humidity;BMP_temperature;BMP_pressure;BME280_temperature;BME280_humidity;BME280_pressure;Samples;Min_cycle;Max_cycle;Signal;HPM_P1;HPM_P2
2024/04/17 00:00:31;;;;;;;;;;;;;;;21.44;27.52;96612.81;5381634;26;1385;-75
2024/04/17 00:02:57;;;;;;;;;;;;;;;21.30;27.61;96612.25;5352420;26;729;-75
2024/04/17 00:05:22;;;;;;;;;;;;;;;21.32;27.63;96621.03;5352050;26;1329;-74
2024/04/17 00:07:48;;;;;;;;;;;;;;;21.12;28.02;96619.97;5352043;26;1524;-75
2024/04/17 00:10:13;;;;;;;;;;;;;;;21.31;27.42;96619.47;5381421;26;800;-75
2024/04/17 00:12:39;;;;;;;;;;;;;;;21.12;27.88;96619.97;5352145;26;1520;-76
2024/04/17 00:15:04;;;;;;;;;;;;;;;21.29;27.54;96624.78;5323179;26;1213;-76
2024/04/17 00:17:30;;;;;;;;;;;;;;;21.26;27.63;96628.59;5317305;26;1058;-75
2024/04/17 00:19:55;;;;;;;;;;;;;;;21.23;27.60;96621.03;5317786;26;1819;-75
2024/04/17 00:22:21;;;;;;;;;;;;;;;21.43;27.33;96616.94;5313395;26;786;-75
2024/04/17 00:24:46;;;;;;;;;;;;;;;21.40;27.26;96618.69;5381309;26;710;-75
2024/04/17 00:27:12;;;;;;;;;;;;;;;21.13;27.80;96616.66;5352195;26;1104;-75
2024/04/17 00:29:37;;;;;;;;;;;;;;;21.49;27.25;96615.00;5352115;26;726;-75
2024/04/17 00:32:05;;;;;;;;;;;;;;;21.45;27.28;96620.06;5277553;27;902;-75
2024/04/17 00:34:30;;;;;;;;;;;;;;;21.49;27.15;96603.69;5277319;27;884;-76
2024/04/17 00:36:56;;;;;;;;;;;;;;;21.41;27.28;96597.59;5249616;27;768;-76
2024/04/17 00:39:22;;;;;;;;;;;;;;;21.25;27.50;96595.91;5182899;27;1824;-75
2024/04/17 00:41:48;;;;;;;;;;;;;;;21.46;27.13;96582.03;5145072;27;1146;-75
2024/04/17 00:44:14;;;;;;;;;;;;;;;21.47;27.15;96601.34;5145372;27;1138;-75
2024/04/17 00:46:39;;;;;;;;;;;;;;;21.25;27.59;96578.94;5145230;27;1122;-76
2024/04/17 00:49:05;;;;;;;;;;;;;;;21.44;27.29;96578.88;5145323;27;847;-75
2024/04/17 00:51:30;;;;;;;;;;;;;;;21.37;27.33;96574.34;5145402;27;777;-75
2024/04/17 00:53:56;;;;;;;;;;;;;;;21.17;27.64;96560.72;5113239;28;1126;-75
2024/04/17 00:56:21;;;;;;;;;;;;;;;21.36;27.34;96555.03;5113006;28;750;-75
2024/04/17 00:58:47;;;;;;;;;;;;;;;21.15;27.76;96571.72;5112038;28;2145;-75
2024/04/17 01:01:12;;;;;;;;;;;;;;;21.38;27.43;96575.13;5113121;28;768;-75
2024/04/17 01:03:38;;;;;;;;;;;;;;;21.18;27.81;96589.78;5114727;27;1204;-75
2024/04/17 01:06:03;;;;;;;;;;;;;;;21.20;27.71;96588.06;5177555;27;791;-75
2024/04/17 01:08:29;;;;;;;;;;;;;;;21.19;27.65;96603.47;5177072;27;1119;-75
2024/04/17 01:10:58;;;;;;;;;;;;;;;21.19;27.70;96592.16;5154255;27;757;-75
2024/04/17 01:13:23;;;;;;;;;;;;;;;21.25;27.64;96580.97;5216012;27;1211;-75
2024/04/17 01:15:49;;;;;;;;;;;;;;;21.20;27.71;96584.44;5243318;27;851;-75
2024/04/17 01:18:14;;;;;;;;;;;;;;;21.58;27.30;96581.00;5242785;27;1841;-75
2024/04/17 01:20:40;;;;;;;;;;;;;;;20.91;27.55;96481.16;5271108;27;1197;-76
2024/04/17 01:23:05;;;;;;;;;;;;;;;21.64;27.07;96547.97;5242998;27;898;-75
2024/04/17 01:25:31;;;;;;;;;;;;;;;21.39;27.57;96565.38;5242908;27;986;-75
2024/04/17 01:27:56;;;;;;;;;;;;;;;21.41;27.43;96565.69;5243212;27;751;-75
2024/04/17 01:30:22;;;;;;;;;;;;;;;21.26;27.72;96557.84;5250748;27;758;-75
2024/04/17 01:32:47;;;;;;;;;;;;;;;21.29;27.64;96548.41;5282448;27;734;-75
2024/04/17 01:35:13;;;;;;;;;;;;;;;21.10;27.93;96529.97;5310869;27;805;-76
2024/04/17 01:37:38;;;;;;;;;;;;;;;21.46;27.30;96508.44;5310886;26;1067;-75
2024/04/17 01:40:04;;;;;;;;;;;;;;;21.36;27.46;96544.50;5307007;26;1833;-75
2024/04/17 01:42:29;;;;;;;;;;;;;;;21.33;27.66;96540.56;5316731;26;1455;-75
2024/04/17 01:44:55;;;;;;;;;;;;;;;21.44;27.52;96544.91;5247894;27;1227;-75
2024/04/17 01:47:21;;;;;;;;;;;;;;;21.56;27.44;96539.06;5248466;27;1226;-75
2024/04/17 01:49:46;;;;;;;;;;;;;;;21.36;27.55;96540.88;5276803;27;830;-75
2024/04/17 01:52:12;;;;;;;;;;;;;;;21.36;27.67;96538.84;5320454;26;803;-75
2024/04/17 01:54:37;;;;;;;;;;;;;;;21.49;27.53;96541.44;5350561;26;955;-75
2024/04/17 01:57:03;;;;;;;;;;;;;;;21.29;27.79;96528.59;5379768;26;1130;-75
2024/04/17 01:59:28;;;;;;;;;;;;;;;21.40;27.56;96524.50;5350353;26;1826;-75
2024/04/17 02:01:54;;;;;;;;;;;;;;;21.62;27.10;96527.84;5350308;26;825;-75
2024/04/17 02:04:19;;;;;;;;;;;;;;;21.51;27.35;96522.72;5321689;26;1186;-75
2024/04/17 02:06:45;;;;;;;;;;;;;;;21.32;27.79;96522.03;5350160;26;1146;-75
2024/04/17 02:09:10;;;;;;;;;;;;;;;21.35;27.65;96519.50;5379898;26;805;-75
2024/04/17 02:11:35;;;;;;;;;;;;;;;21.37;27.63;96517.75;5380986;26;809;-75
2024/04/17 02:14:01;;;;;;;;;;;;;;;21.38;27.66;96518.53;5284875;27;781;-75
2024/04/17 02:16:27;;;;;;;;;;;;;;;21.10;28.04;96515.81;5304858;26;1242;-75
2024/04/17 02:18:52;;;;;;;;;;;;;;;21.40;27.73;96510.34;5284876;27;1856;-75
2024/04/17 02:21:18;;;;;;;;;;;;;;;21.24;27.93;96519.97;5285013;27;736;-75
2024/04/17 02:23:46;;;;;;;;;;;;;;;21.24;27.85;96532.09;5256586;27;1127;-75
2024/04/17 02:26:11;;;;;;;;;;;;;;;21.24;27.91;96532.09;5228726;27;1234;-75
2024/04/17 02:28:37;;;;;;;;;;;;;;;21.21;27.92;96538.72;5245484;27;836;-75
2024/04/17 02:31:02;;;;;;;;;;;;;;;21.38;27.84;96529.84;5217777;27;850;-75
2024/04/17 02:33:28;;;;;;;;;;;;;;;21.31;27.72;96526.13;5217566;27;1214;-75
2024/04/17 02:35:53;;;;;;;;;;;;;;;21.37;27.41;96528.28;5245603;27;786;-75
2024/04/17 02:38:19;;;;;;;;;;;;;;;21.29;27.73;96522.94;5217326;27;1832;-75
2024/04/17 02:40:44;;;;;;;;;;;;;;;21.22;27.92;96528.94;5217393;27;1106;-75
2024/04/17 02:43:10;;;;;;;;;;;;;;;21.26;27.77;96532.41;5217440;27;1107;-75
2024/04/17 02:45:35;;;;;;;;;;;;;;;21.44;27.54;96516.63;5245437;27;769;-75
2024/04/17 02:48:01;;;;;;;;;;;;;;;21.36;27.60;96521.06;5245633;27;829;-75
2024/04/17 02:50:26;;;;;;;;;;;;;;;21.47;27.46;96507.19;5249896;27;998;-75
2024/04/17 02:52:52;;;;;;;;;;;;;;;21.28;27.76;96507.22;5313449;27;950;-75
2024/04/17 02:55:17;;;;;;;;;;;;;;;21.39;27.27;96505.97;5288977;26;909;-75
2024/04/17 02:57:43;;;;;;;;;;;;;;;21.27;27.54;96522.66;5324765;26;702;-75
2024/04/17 03:00:09;;;;;;;;;;;;;;;21.45;27.51;96535.16;5398196;26;1833;-75
2024/04/17 03:02:34;;;;;;;;;;;;;;;21.33;27.54;96529.25;5389508;26;1241;-75
2024/04/17 03:05:00;;;;;;;;;;;;;;;21.43;27.41;96526.38;5419307;26;738;-76
2024/04/17 03:07:26;;;;;;;;;;;;;;;21.11;27.87;96520.22;5389487;26;1242;-75
2024/04/17 03:09:51;;;;;;;;;;;;;;;21.10;27.82;96510.16;5419327;26;793;-74
2024/04/17 03:12:17;;;;;;;;;;;;;;;21.35;27.54;96508.16;5419270;26;706;-75
2024/04/17 03:14:42;;;;;;;;;;;;;;;21.31;27.28;96497.81;5419171;26;721;-74
2024/04/17 03:17:08;;;;;;;;;;;;;;;21.47;27.19;96493.03;5419023;26;800;-75
2024/04/17 03:19:34;;;;;;;;;;;;;;;21.27;27.44;96485.88;5360359;26;1833;-75
2024/04/17 03:21:59;;;;;;;;;;;;;;;21.27;27.65;96480.22;5388588;26;1113;-75
2024/04/17 03:24:25;;;;;;;;;;;;;;;21.37;27.40;96478.16;5420575;26;717;-76
2024/04/17 03:26:50;;;;;;;;;;;;;;;21.46;27.47;96480.94;5389268;26;1120;-74
2024/04/17 03:29:16;;;;;;;;;;;;;;;21.38;27.90;96479.72;5360045;26;1064;-75
2024/04/17 03:31:41;;;;;;;;;;;;;;;21.26;27.96;96475.03;5418856;26;793;-75
2024/04/17 03:34:07;;;;;;;;;;;;;;;21.36;27.82;96481.47;5389558;26;723;-75
2024/04/17 03:36:32;;;;;;;;;;;;;;;21.69;27.29;96479.34;5379938;26;2139;-75
2024/04/17 03:38:58;;;;;;;;;;;;;;;21.35;28.01;96497.66;5351340;26;1861;-76
2024/04/17 03:41:23;;;;;;;;;;;;;;;21.45;27.37;96506.84;5375434;26;1731;-75
2024/04/17 03:43:49;;;;;;;;;;;;;;;21.35;28.02;96496.84;5346876;26;989;-76
2024/04/17 03:46:14;;;;;;;;;;;;;;;21.51;27.60;96500.09;5364170;26;1703;-75
2024/04/17 03:48:40;;;;;;;;;;;;;;;21.44;27.72;96497.59;5382048;26;987;-75
2024/04/17 03:51:05;;;;;;;;;;;;;;;21.44;27.93;96493.97;5352264;26;1303;-75
2024/04/17 03:53:31;;;;;;;;;;;;;;;21.29;28.00;96494.66;5283800;27;1627;-75
2024/04/17 03:55:56;;;;;;;;;;;;;;;21.68;27.57;96511.75;5259056;27;1703;-75
2024/04/17 03:58:22;;;;;;;;;;;;;;;21.27;28.11;96504.91;5269471;27;1846;-75
2024/04/17 04:00:47;;;;;;;;;;;;;;;21.55;27.60;96516.88;5244302;27;1590;-75
2024/04/17 04:03:13;;;;;;;;;;;;;;;21.49;27.90;96518.78;5244498;27;943;-75
2024/04/17 04:05:42;;;;;;;;;;;;;;;21.08;28.56;96512.66;5251619;27;2174;-77
2024/04/17 04:08:07;;;;;;;;;;;;;;;21.41;28.07;96512.72;5263020;27;1763;-75
2024/04/17 04:10:33;;;;;;;;;;;;;;;21.30;28.11;96507.59;5255408;27;1238;-75
2024/04/17 04:12:58;;;;;;;;;;;;;;;21.27;28.15;96508.50;5283574;27;967;-76
2024/04/17 04:15:24;;;;;;;;;;;;;;;21.23;28.33;96524.06;5287715;26;1692;-75
2024/04/17 04:17:49;;;;;;;;;;;;;;;21.43;27.92;96524.31;5346585;26;965;-75
2024/04/17 04:20:15;;;;;;;;;;;;;;;21.27;28.35;96511.34;5317515;26;1826;-75
2024/04/17 04:22:40;;;;;;;;;;;;;;;21.43;28.00;96509.41;5317844;26;1125;-75
2024/04/17 04:25:06;;;;;;;;;;;;;;;21.66;27.34;96516.31;5346313;26;1030;-75
2024/04/17 04:27:31;;;;;;;;;;;;;;;21.42;27.92;96519.16;5344621;26;1942;-75
2024/04/17 04:29:57;;;;;;;;;;;;;;;21.40;27.99;96513.19;5287529;26;1135;-75
2024/04/17 04:32:23;;;;;;;;;;;;;;;21.27;28.17;96508.50;5352012;26;1037;-75
2024/04/17 04:34:48;;;;;;;;;;;;;;;21.39;28.06;96505.97;5310443;27;933;-76
2024/04/17 04:37:14;;;;;;;;;;;;;;;21.72;27.49;96515.22;5275018;27;2147;-75
2024/04/17 04:39:39;;;;;;;;;;;;;;;21.43;28.02;96520.72;5199575;27;1831;-75
2024/04/17 04:42:05;;;;;;;;;;;;;;;21.55;27.91;96528.19;5283301;27;1032;-75
2024/04/17 04:44:30;;;;;;;;;;;;;;;21.40;28.12;96521.66;5254994;27;1073;-75
2024/04/17 04:46:56;;;;;;;;;;;;;;;21.33;28.17;96528.47;5258669;27;1718;-75
2024/04/17 04:49:22;;;;;;;;;;;;;;;21.53;28.06;96531.50;5249183;27;1254;-75
2024/04/17 04:51:48;;;;;;;;;;;;;;;21.53;27.99;96536.38;5277592;27;959;-75
2024/04/17 04:54:14;;;;;;;;;;;;;;;21.48;28.03;96539.88;5248897;27;1232;-75
2024/04/17 04:56:40;;;;;;;;;;;;;;;21.66;27.75;96538.97;5263410;27;2028;-75
2024/04/17 04:59:05;;;;;;;;;;;;;;;21.40;28.38;96549.97;5249143;27;1855;-75
2024/04/17 05:01:31;;;;;;;;;;;;;;;21.59;27.98;96552.22;5277607;27;1014;-75
2024/04/17 05:03:56;;;;;;;;;;;;;;;21.59;27.99;96557.09;5249182;27;921;-75
2024/04/17 05:06:22;;;;;;;;;;;;;;;21.59;28.11;96562.75;5247061;26;1900;-76
2024/04/17 05:08:47;;;;;;;;;;;;;;;21.55;27.95;96556.50;5345874;26;1034;-75
2024/04/17 05:11:13;;;;;;;;;;;;;;;21.81;27.52;96554.78;5317019;26;1127;-75
2024/04/17 05:13:38;;;;;;;;;;;;;;;21.39;28.40;96548.41;5316744;26;1144;-75
2024/04/17 05:16:04;;;;;;;;;;;;;;;21.60;27.90;96550.16;5316945;26;1667;-76
2024/04/17 05:18:30;;;;;;;;;;;;;;;21.54;28.13;96526.63;5316845;26;1821;-75
2024/04/17 05:20:55;;;;;;;;;;;;;;;21.60;28.21;96519.03;5288171;26;1058;-75
2024/04/17 05:23:21;;;;;;;;;;;;;;;21.67;27.91;96513.03;5316960;26;1123;-75
2024/04/17 05:25:46;;;;;;;;;;;;;;;21.65;28.06;96523.25;5286918;26;2151;-75
2024/04/17 05:28:12;;;;;;;;;;;;;;;21.52;28.46;96523.50;5398256;26;1128;-75
2024/04/17 05:30:37;;;;;;;;;;;;;;;21.59;28.28;96517.47;5417027;26;929;-76
2024/04/17 05:33:03;;;;;;;;;;;;;;;21.22;28.86;96520.47;5417288;26;929;-75
2024/04/17 05:35:28;;;;;;;;;;;;;;;21.47;28.45;96505.13;5386931;26;2029;-75
2024/04/17 05:37:54;;;;;;;;;;;;;;;21.60;28.24;96502.06;5417134;26;952;-75
2024/04/17 05:40:19;;;;;;;;;;;;;;;21.56;28.11;96496.59;5416732;26;1843;-75
2024/04/17 05:42:45;;;;;;;;;;;;;;;21.49;27.96;96450.88;5387826;26;966;-75
2024/04/17 05:45:11;;;;;;;;;;;;;;;21.52;28.29;96498.03;5386850;26;1788;-75
2024/04/17 05:47:36;;;;;;;;;;;;;;;21.67;28.13;96498.09;5361597;26;1058;-75
2024/04/17 05:50:02;;;;;;;;;;;;;;;21.43;28.60;96510.19;5420312;26;934;-75
2024/04/17 05:52:27;;;;;;;;;;;;;;;21.44;28.37;96500.41;5420248;26;1233;-75
2024/04/17 05:54:53;;;;;;;;;;;;;;;21.77;27.79;96500.38;5390993;26;944;-75
2024/04/17 05:57:18;;;;;;;;;;;;;;;21.61;28.32;96506.47;5419780;26;1757;-75
2024/04/17 05:59:44;;;;;;;;;;;;;;;21.72;28.01;96498.22;5421869;26;1860;-75
2024/04/17 06:02:09;;;;;;;;;;;;;;;21.64;27.99;96497.00;5421920;26;1014;-75
2024/04/17 06:04:36;;;;;;;;;;;;;;;21.54;28.30;96487.78;5420365;26;987;-75
2024/04/17 06:07:01;;;;;;;;;;;;;;;21.56;28.21;96467.50;5389713;26;1920;-75
2024/04/17 06:09:27;;;;;;;;;;;;;;;21.56;28.14;96490.94;5421549;26;925;-75
2024/04/17 06:11:52;;;;;;;;;;;;;;;21.69;28.06;96470.88;5360067;26;1246;-76
2024/04/17 06:14:18;;;;;;;;;;;;;;;21.81;27.81;96474.69;5390353;26;1226;-75
2024/04/17 06:16:43;;;;;;;;;;;;;;;21.70;28.16;96461.09;5388216;26;1661;-75
2024/04/17 06:19:09;;;;;;;;;;;;;;;21.63;28.32;96461.47;5345541;26;1987;-75
2024/04/17 06:21:35;;;;;;;;;;;;;;;21.33;28.93;96458.50;5324980;26;1218;-75
2024/04/17 06:24:00;;;;;;;;;;;;;;;21.60;28.60;96459.59;5284953;27;950;-76
2024/04/17 06:26:25;;;;;;;;;;;;;;;21.62;28.54;96454.25;5313641;27;1012;-75
2024/04/17 06:28:51;;;;;;;;;;;;;;;21.65;28.54;96456.09;5253681;27;1820;-75
2024/04/17 06:31:17;;;;;;;;;;;;;;;21.74;28.35;96443.94;5279286;27;1153;-75
2024/04/17 06:33:42;;;;;;;;;;;;;;;21.97;28.01;96450.84;5250932;27;1141;-76
2024/04/17 06:36:08;;;;;;;;;;;;;;;21.68;28.31;96452.31;5250953;27;1252;-75
2024/04/17 06:38:33;;;;;;;;;;;;;;;21.62;28.46;96459.91;5200313;27;1945;-75
2024/04/17 06:41:00;;;;;;;;;;;;;;;21.50;28.71;96446.78;5223342;27;1111;-76
2024/04/17 06:43:26;;;;;;;;;;;;;;;21.44;28.72;96445.88;5223164;27;1163;-75
2024/04/17 06:45:51;;;;;;;;;;;;;;;21.54;28.62;96448.16;5250818;27;1230;-75
2024/04/17 06:48:17;;;;;;;;;;;;;;;21.50;28.82;96446.78;5277346;27;1902;-75
2024/04/17 06:50:43;;;;;;;;;;;;;;;21.60;28.64;96442.63;5223286;27;1207;-76
2024/04/17 06:53:10;;;;;;;;;;;;;;;21.61;28.83;96440.59;5222824;27;1119;-75
2024/04/17 06:55:36;;;;;;;;;;;;;;;21.83;28.34;96430.50;5276396;27;955;-76
2024/04/17 06:58:02;;;;;;;;;;;;;;;21.55;28.69;96432.78;5301127;26;2058;-75
2024/04/17 07:00:30;;;;;;;;;;;;;;;21.67;28.52;96428.13;5284091;27;1850;-75
2024/04/17 07:02:56;;;;;;;;;;;;;;;21.58;28.78;96443.09;5256463;27;1149;-75
2024/04/17 07:05:21;;;;;;;;;;;;;;;21.58;28.73;96439.50;5320162;26;1096;-75
2024/04/17 07:07:47;;;;;;;;;;;;;;;21.67;28.59;96439.44;5398374;26;1869;-75
2024/04/17 07:10:12;;;;;;;;;;;;;;;21.65;28.76;96441.94;5420969;26;917;-75
2024/04/17 07:12:39;;;;;;;;;;;;;;;21.55;28.86;96429.13;5419188;26;1366;-75
2024/04/17 07:15:04;;;;;;;;;;;;;;;21.34;29.14;96436.66;5419583;26;913;-74
2024/04/17 07:17:30;;;;;;;;;;;;;;;21.45;28.98;96419.94;5388552;26;1625;-75
2024/04/17 07:19:55;;;;;;;;;;;;;;;21.73;28.61;96429.00;5360002;26;1842;-75
2024/04/17 07:22:21;;;;;;;;;;;;;;;21.55;29.01;96429.94;5420926;26;947;-75
2024/04/17 07:24:46;;;;;;;;;;;;;;;21.70;28.73;96427.13;5389380;26;1154;-76
2024/04/17 07:27:12;;;;;;;;;;;;;;;21.77;28.59;96423.94;5421682;26;1873;-75
2024/04/17 07:29:37;;;;;;;;;;;;;;;21.61;28.99;96430.06;5394035;26;1056;-75
2024/04/17 07:32:03;;;;;;;;;;;;;;;21.67;28.83;96430.94;5423740;26;945;-75
2024/04/17 07:34:29;;;;;;;;;;;;;;;21.72;28.70;96430.28;5423678;26;989;-75
2024/04/17 07:36:54;;;;;;;;;;;;;;;21.49;29.18;96426.19;5398222;26;1709;-75
2024/04/17 07:39:20;;;;;;;;;;;;;;;21.97;28.46;96431.81;5416866;26;1826;-75
2024/04/17 07:41:45;;;;;;;;;;;;;;;21.87;28.51;96427.50;5388093;26;989;-75
2024/04/17 07:44:11;;;;;;;;;;;;;;;21.75;28.69;96422.84;5401821;26;2812;-76
2024/04/17 07:46:36;;;;;;;;;;;;;;;21.74;28.56;96413.59;5317874;26;1774;-76
2024/04/17 07:49:02;;;;;;;;;;;;;;;21.69;28.81;96408.59;5290020;26;1049;-75
2024/04/17 07:51:27;;;;;;;;;;;;;;;21.74;28.73;96409.97;5348287;26;1883;-75
2024/04/17 07:53:53;;;;;;;;;;;;;;;21.78;28.66;96402.09;5381845;26;908;-75
2024/04/17 07:56:18;;;;;;;;;;;;;;;21.63;28.86;96396.38;5323879;26;928;-75
2024/04/17 07:58:44;;;;;;;;;;;;;;;21.81;28.58;96401.91;5323677;26;1845;-75
2024/04/17 08:01:10;;;;;;;;;;;;;;;21.94;28.47;96398.00;5323871;26;1204;-75
2024/04/17 08:03:37;;;;;;;;;;;;;;;21.61;29.06;96404.59;5323910;26;1917;-75
2024/04/17 08:06:02;;;;;;;;;;;;;;;21.73;28.79;96402.75;5352447;26;1507;-75
2024/04/17 08:08:28;;;;;;;;;;;;;;;21.72;28.88;96401.97;5352210;26;966;-75
2024/04/17 08:10:53;;;;;;;;;;;;;;;21.91;28.66;96407.47;5352956;26;959;-75
2024/04/17 08:13:19;;;;;;;;;;;;;;;21.85;28.67;96405.31;5380503;26;1454;-75
2024/04/17 08:15:45;;;;;;;;;;;;;;;21.68;28.98;96418.34;5323697;26;954;-75
2024/04/17 08:18:11;;;;;;;;;;;;;;;21.87;28.75;96413.34;5369140;26;1868;-75
2024/04/17 08:20:36;;;;;;;;;;;;;;;21.71;28.95;96417.41;5416826;26;1011;-75
2024/04/17 08:23:02;;;;;;;;;;;;;;;21.89;28.67;96415.66;5383821;26;1755;-76
2024/04/17 08:25:27;;;;;;;;;;;;;;;21.88;28.73;96414.13;5383767;26;1867;-75
2024/04/17 08:27:53;;;;;;;;;;;;;;;21.65;29.34;96413.66;5417135;26;1036;-75
2024/04/17 08:30:18;;;;;;;;;;;;;;;21.66;29.37;96415.25;5387220;26;927;-75
2024/04/17 08:32:45;;;;;;;;;;;;;;;21.99;28.89;96414.31;5384915;26;2012;-76
2024/04/17 08:35:11;;;;;;;;;;;;;;;21.93;28.81;96421.94;5359001;26;1655;-75
2024/04/17 08:37:36;;;;;;;;;;;;;;;21.98;28.78;96409.94;5386172;26;1604;-75
2024/04/17 08:40:03;;;;;;;;;;;;;;;21.74;29.12;96405.09;5377344;26;1834;-74
2024/04/17 08:42:28;;;;;;;;;;;;;;;21.87;28.95;96401.22;5380603;26;1635;-75
2024/04/17 08:44:54;;;;;;;;;;;;;;;21.92;28.96;96409.03;5351777;26;1268;-75
2024/04/17 08:47:19;;;;;;;;;;;;;;;21.81;29.03;96410.41;5282731;26;1334;-76
2024/04/17 08:49:45;;;;;;;;;;;;;;;21.93;28.96;96404.94;5311034;27;1929;-75
2024/04/17 08:52:10;;;;;;;;;;;;;;;22.21;28.64;96391.31;5335812;26;2141;-75
2024/04/17 08:54:36;;;;;;;;;;;;;;;22.05;28.80;96401.03;5317256;26;1172;-75
2024/04/17 08:57:01;;;;;;;;;;;;;;;21.81;29.13;96398.25;5317258;26;1265;-74
2024/04/17 08:59:27;;;;;;;;;;;;;;;21.85;28.92;96405.31;5282009;27;2016;-76
2024/04/17 09:01:52;;;;;;;;;;;;;;;21.84;29.16;96409.41;5311383;27;1003;-75
2024/04/17 09:04:18;;;;;;;;;;;;;;;21.88;29.22;96408.44;5283342;27;1255;-76
2024/04/17 09:06:43;;;;;;;;;;;;;;;21.70;29.49;96415.03;5311526;27;972;-75
2024/04/17 09:09:09;;;;;;;;;;;;;;;21.84;29.08;96409.41;5287825;26;2065;-75
2024/04/17 09:11:35;;;;;;;;;;;;;;;21.79;29.26;96410.09;5317354;26;949;-75
2024/04/17 09:14:01;;;;;;;;;;;;;;;21.88;29.04;96408.44;5316993;26;887;-75
2024/04/17 09:16:26;;;;;;;;;;;;;;;22.03;28.78;96404.38;5316727;26;984;-75
2024/04/17 09:18:52;;;;;;;;;;;;;;;21.77;29.21;96392.81;5390627;26;1833;-75
2024/04/17 09:21:17;;;;;;;;;;;;;;;21.93;28.90;96382.28;5359278;26;1126;-75
2024/04/17 09:23:43;;;;;;;;;;;;;;;21.94;29.01;96378.19;5360275;26;937;-75
2024/04/17 09:26:18;;;;;;;;;;;;;;;22.06;28.89;96385.59;5360236;26;1125;-75
2024/04/17 09:28:44;;;;;;;;;;;;;;;21.93;29.16;96376.63;5360749;26;1548;-75
2024/04/17 09:31:10;;;;;;;;;;;;;;;22.03;29.08;96369.59;5423371;26;2093;-75
2024/04/17 09:33:43;;;;;;;;;;;;;;;22.04;29.02;96368.34;5354713;26;1113;-76
2024/04/17 09:36:09;;;;;;;;;;;;;;;21.77;29.28;96375.81;5383787;26;982;-75
2024/04/17 09:38:35;;;;;;;;;;;;;;;21.70;29.74;96384.66;5383811;26;1822;-74
2024/04/17 09:41:00;;;;;;;;;;;;;;;21.99;29.17;96369.00;5342212;26;1794;-74
2024/04/17 09:43:26;;;;;;;;;;;;;;;22.09;29.01;96362.75;5291192;26;1885;-75
2024/04/17 09:45:56;;;;;;;;;;;;;;;22.04;29.03;96371.94;5319699;26;963;-76
2024/04/17 09:48:22;;;;;;;;;;;;;;;21.84;29.42;96381.09;5319464;26;1204;-75
2024/04/17 09:50:48;;;;;;;;;;;;;;;21.95;29.34;96368.41;5293286;27;2138;-76
2024/04/17 09:53:13;;;;;;;;;;;;;;;21.83;29.53;96376.69;5256443;27;1998;-75
2024/04/17 09:55:39;;;;;;;;;;;;;;;21.82;29.58;96375.16;5252261;27;987;-76
2024/04/17 09:58:04;;;;;;;;;;;;;;;21.74;29.73;96365.44;5251707;27;1178;-75
2024/04/17 10:00:30;;;;;;;;;;;;;;;21.96;29.24;96369.97;5265426;27;1831;-76
2024/04/17 10:02:57;;;;;;;;;;;;;;;22.10;29.06;96360.72;5273947;27;1051;-75
2024/04/17 10:05:22;;;;;;;;;;;;;;;22.10;29.10;96369.22;5282806;26;2082;-75
2024/04/17 10:07:48;;;;;;;;;;;;;;;22.09;29.00;96367.66;5307624;26;1968;-76
2024/04/17 10:10:15;;;;;;;;;;;;;;;21.95;29.40;96362.75;5307869;27;1430;-75
2024/04/17 10:12:40;;;;;;;;;;;;;;;22.04;29.42;96363.44;5366627;26;1250;-75
2024/04/17 10:15:07;;;;;;;;;;;;;;;22.01;29.12;96352.31;5313617;27;1388;-75
2024/04/17 10:17:33;;;;;;;;;;;;;;;22.11;29.08;96365.13;5270880;26;1860;-75
2024/04/17 10:19:58;;;;;;;;;;;;;;;22.18;29.11;96352.66;5290727;26;1819;-75
2024/04/17 10:22:24;;;;;;;;;;;;;;;21.87;29.38;96361.59;5318130;26;2467;-75
2024/04/17 10:24:49;;;;;;;;;;;;;;;21.84;29.67;96349.94;5347861;26;1086;-75
2024/04/17 10:27:15;;;;;;;;;;;;;;;22.04;29.25;96354.16;5312068;26;1940;-75
2024/04/17 10:29:41;;;;;;;;;;;;;;;21.90;29.35;96363.44;5284762;26;1207;-76
2024/04/17 10:32:10;;;;;;;;;;;;;;;21.98;29.26;96358.97;5284197;26;1020;-76
2024/04/17 10:34:41;;;;;;;;;;;;;;;21.84;29.35;96352.78;5253469;27;1240;-75
2024/04/17 10:37:07;;;;;;;;;;;;;;;22.01;29.33;96366.47;5270759;27;2046;-75
2024/04/17 10:39:33;;;;;;;;;;;;;;;22.14;29.00;96384.00;5245357;27;1835;-75
2024/04/17 10:41:58;;;;;;;;;;;;;;;22.12;29.02;96380.84;5245421;27;1155;-76
2024/04/17 10:44:24;;;;;;;;;;;;;;;22.20;29.04;96381.25;5245214;27;1221;-75
2024/04/17 10:46:59;;;;;;;;;;;;;;;22.02;29.36;96379.34;5191107;27;1674;-74
2024/04/17 10:49:25;;;;;;;;;;;;;;;21.84;29.67;96381.09;5240184;27;1302;-76
2024/04/17 10:51:51;;;;;;;;;;;;;;;21.96;29.51;96364.31;5184673;27;974;-76
2024/04/17 10:54:16;;;;;;;;;;;;;;;22.04;29.39;96371.16;5296723;27;1004;-75
2024/04/17 10:56:42;;;;;;;;;;;;;;;21.77;29.93;96363.72;5222552;27;2100;-76
2024/04/17 10:59:07;;;;;;;;;;;;;;;21.85;29.89;96365.66;5279322;27;1826;-75
2024/04/17 11:01:33;;;;;;;;;;;;;;;22.03;29.49;96378.09;5251069;27;915;-75
2024/04/17 11:03:58;;;;;;;;;;;;;;;22.27;29.06;96361.81;5257099;27;988;-75
2024/04/17 11:06:24;;;;;;;;;;;;;;;22.04;29.38;96360.63;5397403;26;1668;-75
2024/04/17 11:08:52;;;;;;;;;;;;;;;21.98;29.59;96350.47;5388906;26;1829;-76
2024/04/17 11:11:17;;;;;;;;;;;;;;;22.16;29.23;96344.63;5419354;26;1402;-75
2024/04/17 11:13:43;;;;;;;;;;;;;;;22.20;29.16;96333.88;5421069;26;944;-75
2024/04/17 11:16:08;;;;;;;;;;;;;;;21.98;29.55;96327.81;5389511;26;1198;-75
2024/04/17 11:18:35;;;;;;;;;;;;;;;21.99;29.48;96318.03;5388600;26;1856;-75
2024/04/17 11:21:00;;;;;;;;;;;;;;;21.95;29.58;96334.44;5360673;26;1147;-75
2024/04/17 11:23:26;;;;;;;;;;;;;;;22.06;29.56;96311.97;5387023;26;2073;-77
2024/04/17 11:25:51;;;;;;;;;;;;;;;22.01;29.59;96312.66;5358462;26;1148;-75
2024/04/17 11:28:17;;;;;;;;;;;;;;;22.13;29.50;96288.19;5388063;26;951;-75
2024/04/17 11:30:48;;;;;;;;;;;;;;;22.04;29.51;96286.19;5388204;26;981;-75
2024/04/17 11:33:14;;;;;;;;;;;;;;;22.08;29.37;96281.13;5387386;26;1918;-75
2024/04/17 11:35:40;;;;;;;;;;;;;;;22.19;29.36;96281.31;5388027;26;916;-74
2024/04/17 11:38:09;;;;;;;;;;;;;;;22.00;29.38;96282.78;5358658;26;1567;-75
2024/04/17 11:40:34;;;;;;;;;;;;;;;22.16;29.41;96259.63;5358576;26;1114;-75
2024/04/17 11:43:00;;;;;;;;;;;;;;;22.18;29.34;96262.78;5351436;26;1955;-76
2024/04/17 11:45:25;;;;;;;;;;;;;;;22.26;29.21;96258.25;5346666;26;889;-75
2024/04/17 11:47:51;;;;;;;;;;;;;;;22.06;29.74;96253.28;5318274;26;1231;-75
2024/04/17 11:50:16;;;;;;;;;;;;;;;21.90;29.77;96241.66;5283546;27;1265;-75
2024/04/17 11:52:42;;;;;;;;;;;;;;;22.07;29.47;96237.06;5282755;27;1699;-76
2024/04/17 11:55:07;;;;;;;;;;;;;;;21.93;29.97;96232.22;5278251;27;1020;-75
2024/04/17 11:57:33;;;;;;;;;;;;;;;21.85;30.10;96229.75;5222368;27;1273;-75
2024/04/17 11:59:58;;;;;;;;;;;;;;;22.10;29.70;96227.59;5221847;27;1848;-75
2024/04/17 12:02:24;;;;;;;;;;;;;;;21.93;29.82;96218.06;5248761;27;1828;-76
2024/04/17 12:04:49;;;;;;;;;;;;;;;22.16;29.32;96219.97;5249841;27;1161;-75
2024/04/17 12:07:15;;;;;;;;;;;;;;;22.15;29.41;96212.75;5278189;27;985;-75
2024/04/17 12:09:46;;;;;;;;;;;;;;;22.20;29.36;96220.56;5249837;27;917;-75
2024/04/17 12:12:12;;;;;;;;;;;;;;;22.24;29.31;96215.47;5248635;27;1947;-75
2024/04/17 12:14:38;;;;;;;;;;;;;;;22.03;29.79;96211.00;5277448;27;1723;-75
2024/04/17 12:17:03;;;;;;;;;;;;;;;22.17;29.45;96203.75;5275260;27;971;-74
2024/04/17 12:19:28;;;;;;;;;;;;;;;22.16;29.35;96217.16;5283359;27;1822;-75
2024/04/17 12:21:54;;;;;;;;;;;;;;;22.00;29.53;96197.81;5330582;26;2018;-75
2024/04/17 12:24:27;;;;;;;;;;;;;;;22.05;29.48;96214.13;5255101;27;1151;-75
2024/04/17 12:26:52;;;;;;;;;;;;;;;21.95;29.72;96204.94;5311217;26;1169;-75
2024/04/17 12:29:18;;;;;;;;;;;;;;;22.07;29.40;96205.91;5283144;27;915;-75
2024/04/17 12:31:44;;;;;;;;;;;;;;;22.00;29.60;96197.81;5268516;26;2101;-75
2024/04/17 12:34:09;;;;;;;;;;;;;;;22.11;29.45;96195.19;5243912;27;1067;-75
2024/04/17 12:36:35;;;;;;;;;;;;;;;22.08;29.41;96184.81;5243934;27;1028;-75
2024/04/17 12:39:00;;;;;;;;;;;;;;;22.25;29.25;96183.03;5243775;27;1860;-75
2024/04/17 12:41:26;;;;;;;;;;;;;;;22.10;29.28;96176.59;5224559;27;1933;-75
2024/04/17 12:43:51;;;;;;;;;;;;;;;22.01;29.67;96183.16;5249435;27;1037;-75
2024/04/17 12:46:17;;;;;;;;;;;;;;;21.91;29.83;96192.25;5249249;27;1162;-75
2024/04/17 12:48:42;;;;;;;;;;;;;;;22.22;29.28;96184.00;5277698;27;994;-75
2024/04/17 12:51:08;;;;;;;;;;;;;;;22.10;29.40;96182.25;5248942;27;1694;-75